sim
Sign-in with your pilot id or email,
or register
Callsign
Passwort

Schedule Details

Flight Number: OEO4252
Departure: Vienna International Airport (LOWW) at 09:50
Arrival: Thessaloniki International Airport (LGTS) at 11:40

Weather Information
Getting current METAR information for LOWW 192250Z 02002KT CAVOK 10/01 Q1029 NOSIG
Getting current METAR information for LGTS 192250Z 15005KT 9999 FEW020 13/09 Q1023 NOSIG

Schedule Frequency

Route Map